Time;durP1;ratioP1;P1;durP2;ratioP2;P2;SDS_P1;SDS_P2;PMS_P1;PMS_P2;Temp;Humidity;BMP_temperature;BMP_pressure;BME280_temperature;BME280_humidity;BME280_pressure;Samples;Min_cycle;Max_cycle;Signal;HPM_P1;HPM_P2
2021/11/03 00:01:37;;;;;;;47.45;31.45;;;;;;;8.87;92.16;99395.67;1652765;85;25871;-81
2021/11/03 00:04:06;;;;;;;46.05;29.60;;;;;;;8.89;92.26;99399.46;1646522;85;28178;-82
2021/11/03 00:06:33;;;;;;;48.52;31.00;;;;;;;8.89;92.29;99399.46;1634256;86;26754;-81
2021/11/03 00:09:03;;;;;;;49.38;31.05;;;;;;;8.88;92.34;99394.62;1607281;85;26722;-82
2021/11/03 00:11:31;;;;;;;51.10;31.23;;;;;;;8.87;92.36;99398.84;1652612;85;25835;-81
2021/11/03 00:13:58;;;;;;;45.35;28.67;;;;;;;8.87;92.40;99395.67;1624746;85;26782;-80
2021/11/03 00:16:26;;;;;;;46.37;30.00;;;;;;;8.88;92.49;99397.80;1624925;86;28101;-81
2021/11/03 00:18:53;;;;;;;48.23;29.98;;;;;;;8.88;92.51;99404.48;1641863;86;25871;-81
2021/11/03 00:21:20;;;;;;;44.85;29.15;;;;;;;8.88;92.54;99399.97;1652924;85;25799;-82
2021/11/03 00:23:47;;;;;;;46.95;31.00;;;;;;;8.87;92.54;99399.67;1630561;86;26035;-83
2021/11/03 00:26:14;;;;;;;47.05;29.23;;;;;;;8.86;92.61;99395.85;1643421;86;26119;-81
2021/11/03 00:28:41;;;;;;;46.00;28.87;;;;;;;8.84;92.57;99400.07;1636019;85;27555;-81
2021/11/03 00:31:08;;;;;;;43.40;29.45;;;;;;;8.85;92.67;99404.40;1626722;86;26649;-82
2021/11/03 00:33:35;;;;;;;48.95;31.02;;;;;;;8.84;92.67;99397.41;1613680;86;25830;-82
2021/11/03 00:36:03;;;;;;;52.53;32.08;;;;;;;8.84;92.68;99400.07;1589493;86;26745;-81
2021/11/03 00:38:31;;;;;;;52.05;31.15;;;;;;;8.85;92.69;99398.23;1597683;85;25887;-80
2021/11/03 00:40:57;;;;;;;49.53;32.08;;;;;;;8.85;92.64;99397.72;1627815;85;27498;-81
2021/11/03 00:43:25;;;;;;;45.10;30.05;;;;;;;8.87;92.70;99401.01;1655168;85;25384;-83
2021/11/03 00:45:53;;;;;;;44.40;28.90;;;;;;;8.89;92.67;99398.13;1623667;86;25402;-81
2021/11/03 00:48:20;;;;;;;45.92;31.15;;;;;;;8.90;92.62;99403.76;1641994;86;26344;-81
2021/11/03 00:50:48;;;;;;;43.63;28.95;;;;;;;8.89;92.58;99401.63;1664924;85;26449;-81
2021/11/03 00:53:17;;;;;;;43.87;30.80;;;;;;;8.87;92.56;99405.02;1656957;85;28239;-81
2021/11/03 00:55:44;;;;;;;49.88;31.00;;;;;;;8.84;92.62;99404.08;1633335;85;25896;-82
2021/11/03 00:58:11;;;;;;;45.38;30.97;;;;;;;8.82;92.84;99398.63;1619823;85;25853;-82
2021/11/03 01:00:39;;;;;;;50.20;32.35;;;;;;;8.79;92.92;99397.72;1631477;85;25983;-80
2021/11/03 01:03:07;;;;;;;49.20;30.30;;;;;;;8.78;93.04;99402.23;1663282;85;25912;-80
2021/11/03 01:05:38;;;;;;;47.88;31.25;;;;;;;8.78;93.16;99402.73;1629816;85;27368;-81
2021/11/03 01:08:11;;;;;;;43.87;30.08;;;;;;;8.75;93.28;99403.95;1612695;85;25960;-81
2021/11/03 01:10:43;;;;;;;45.73;29.50;;;;;;;8.74;93.35;99407.67;1655719;85;26373;-81
2021/11/03 01:13:12;;;;;;;49.27;29.00;;;;;;;8.73;93.49;99410.02;1661783;85;26477;-81
2021/11/03 01:15:40;;;;;;;45.58;31.17;;;;;;;8.70;93.57;99406.94;1610769;85;26074;-82
2021/11/03 01:18:07;;;;;;;47.43;30.65;;;;;;;8.68;93.65;99412.50;1622994;85;28382;-81
2021/11/03 01:20:35;;;;;;;46.37;29.70;;;;;;;8.68;93.73;99410.33;1632451;85;25800;-82
2021/11/03 01:23:03;;;;;;;47.03;29.45;;;;;;;8.66;93.92;99407.05;1662921;85;25844;-82
2021/11/03 01:25:31;;;;;;;44.93;31.10;;;;;;;8.64;93.97;99411.23;1614057;85;25450;-81
2021/11/03 01:27:58;;;;;;;51.60;33.15;;;;;;;8.64;94.10;99411.23;1633522;85;25385;-81
2021/11/03 01:30:26;;;;;;;50.92;31.12;;;;;;;8.64;94.22;99408.56;1630531;85;28177;-81
2021/11/03 01:32:55;;;;;;;48.60;30.97;;;;;;;8.64;94.17;99408.56;1662189;85;25999;-81
2021/11/03 01:35:25;;;;;;;48.52;31.57;;;;;;;8.63;94.24;99406.94;1633859;85;26583;-80
2021/11/03 01:37:52;;;;;;;47.27;29.50;;;;;;;8.62;94.25;99408.48;1638350;85;26191;-83
2021/11/03 01:40:24;;;;;;;45.12;29.12;;;;;;;8.62;94.30;99405.81;1631287;85;25345;-82
2021/11/03 01:42:51;;;;;;;45.40;29.55;;;;;;;8.62;94.36;99410.61;1661265;85;27545;-81
2021/11/03 01:45:23;;;;;;;47.58;30.25;;;;;;;8.61;94.30;99408.98;1612248;85;25942;-82
2021/11/03 01:48:01;;;;;;;47.90;30.60;;;;;;;8.60;94.42;99415.87;1599882;85;25915;-81
2021/11/03 01:50:52;;;;;;;47.93;31.45;;;;;;;8.58;94.35;99414.72;1637029;85;26281;-81
2021/11/03 01:53:26;;;;;;;46.08;30.27;;;;;;;8.55;94.79;99401.25;1661282;85;25871;-81
2021/11/03 01:56:12;;;;;;;47.03;29.55;;;;;;;8.55;94.79;99401.25;1636338;85;27355;-81
2021/11/03 01:58:48;;;;;;;46.05;30.97;;;;;;;8.62;94.49;99409.27;1657823;85;26614;-81
2021/11/03 02:01:16;;;;;;;47.10;30.52;;;;;;;8.61;94.42;99404.98;1632683;85;26480;-81
2021/11/03 02:03:44;;;;;;;47.38;30.55;;;;;;;8.63;94.45;99407.44;1659247;85;26172;-82
2021/11/03 02:06:26;;;;;;;50.67;32.00;;;;;;;8.62;94.34;99408.48;1657879;85;26726;-82
2021/11/03 02:08:55;;;;;;;44.20;29.52;;;;;;;8.63;94.31;99410.94;1656724;85;28318;-81
2021/11/03 02:11:26;;;;;;;45.73;29.63;;;;;;;8.63;94.27;99410.94;1656558;85;25943;-81
2021/11/03 02:13:56;;;;;;;53.80;32.08;;;;;;;8.64;94.22;99411.23;1659405;85;26364;-81
2021/11/03 02:16:24;;;;;;;47.88;30.97;;;;;;;8.63;94.13;99414.94;1612302;85;25677;-82
2021/11/03 02:18:51;;;;;;;51.77;30.68;;;;;;;8.62;94.10;99415.95;1635247;85;25785;-80
2021/11/03 02:21:26;;;;;;;47.53;29.30;;;;;;;8.60;94.13;99415.33;1647287;85;28216;-82
2021/11/03 02:24:15;;;;;;;47.58;29.87;;;;;;;8.58;94.12;99409.38;1656010;85;26532;-83
2021/11/03 02:26:47;;;;;;;44.75;29.30;;;;;;;8.58;94.19;99414.72;1640696;85;25917;-82
2021/11/03 02:29:19;;;;;;;45.60;29.67;;;;;;;8.55;94.06;99414.60;1657255;85;26046;-81
2021/11/03 02:31:54;;;;;;;48.52;29.82;;;;;;;8.53;94.09;99422.53;1633019;85;25868;-82
2021/11/03 02:34:28;;;;;;;50.40;30.48;;;;;;;8.52;94.22;99420.36;1657621;85;28281;-81
2021/11/03 02:37:00;;;;;;;47.15;28.92;;;;;;;8.51;94.18;99418.70;1633619;85;25944;-81
2021/11/03 02:39:45;;;;;;;51.08;31.40;;;;;;;8.50;94.16;99421.08;1633893;85;25811;-81
2021/11/03 02:42:14;;;;;;;49.50;29.60;;;;;;;8.50;94.41;99422.92;1639496;85;26699;-81
2021/11/03 02:44:42;;;;;;;45.33;30.10;;;;;;;8.48;94.33;99426.30;1657147;85;26010;-81
2021/11/03 02:47:10;;;;;;;50.98;30.97;;;;;;;8.47;94.31;99421.47;1635503;85;27260;-81
2021/11/03 02:49:40;;;;;;;44.83;30.30;;;;;;;8.49;94.31;99427.93;1633912;85;25890;-83
2021/11/03 02:52:18;;;;;;;48.20;30.07;;;;;;;8.49;94.17;99427.42;1648825;85;25882;-81
2021/11/03 02:54:45;;;;;;;50.88;30.95;;;;;;;8.46;94.17;99435.85;1660381;85;25742;-81
2021/11/03 02:57:12;;;;;;;46.18;31.20;;;;;;;8.45;94.24;99437.36;1604003;85;25899;-81
2021/11/03 02:59:40;;;;;;;48.13;29.75;;;;;;;8.43;94.23;99441.58;1611278;85;28449;-81
2021/11/03 03:02:09;;;;;;;46.00;30.82;;;;;;;8.43;94.34;99442.08;1632731;85;25888;-81
2021/11/03 03:04:40;;;;;;;48.95;31.33;;;;;;;8.42;94.35;99443.95;1661357;85;26249;-81
2021/11/03 03:07:09;;;;;;;43.85;29.20;;;;;;;8.42;94.33;99440.45;1633471;85;25922;-81
2021/11/03 03:09:36;;;;;;;45.92;28.83;;;;;;;8.40;94.33;99446.50;1624240;85;25797;-82
2021/11/03 03:12:08;;;;;;;53.55;31.90;;;;;;;8.37;94.60;99446.89;1661415;85;27572;-82
2021/11/03 03:14:41;;;;;;;50.17;30.15;;;;;;;8.37;94.35;99444.22;1660961;85;26094;-80
2021/11/03 03:17:11;;;;;;;46.45;31.73;;;;;;;8.38;94.33;99449.88;1634606;85;25847;-81
2021/11/03 03:19:41;;;;;;;46.95;30.27;;;;;;;8.36;94.30;99447.93;1660668;85;25889;-81
2021/11/03 03:22:10;;;;;;;47.10;29.87;;;;;;;8.34;94.23;99445.44;1639024;85;26004;-81
2021/11/03 03:24:38;;;;;;;49.60;31.52;;;;;;;8.35;94.21;99451.61;1663087;85;28524;-82
2021/11/03 03:27:07;;;;;;;49.13;30.77;;;;;;;8.33;94.22;99451.81;1630907;85;25956;-82
2021/11/03 03:29:35;;;;;;;50.05;30.25;;;;;;;8.32;94.16;99453.33;1659167;85;26589;-81
2021/11/03 03:32:04;;;;;;;52.25;32.05;;;;;;;8.33;94.22;99455.82;1636120;85;25999;-81
2021/11/03 03:34:33;;;;;;;50.67;32.98;;;;;;;8.35;94.28;99457.77;1662363;85;25378;-81
2021/11/03 03:37:01;;;;;;;51.70;32.70;;;;;;;8.36;94.26;99456.73;1618964;85;27630;-82
2021/11/03 03:39:30;;;;;;;52.88;31.68;;;;;;;8.38;94.26;99456.56;1631527;85;25864;-83
2021/11/03 03:42:03;;;;;;;49.65;30.95;;;;;;;8.37;94.22;99459.73;1633743;85;26103;-82
2021/11/03 03:44:30;;;;;;;51.13;32.65;;;;;;;8.37;94.15;99456.23;1661643;85;25926;-82
2021/11/03 03:46:58;;;;;;;47.80;30.23;;;;;;;8.36;94.11;99456.73;1613830;85;25786;-81
2021/11/03 03:49:26;;;;;;;44.55;29.18;;;;;;;8.36;94.04;99454.06;1622792;85;27591;-81
2021/11/03 03:51:54;;;;;;;46.60;29.75;;;;;;;8.35;94.16;99452.94;1634865;85;26200;-82
2021/11/03 03:54:22;;;;;;;45.20;28.85;;;;;;;8.34;94.13;99452.11;1658801;84;26800;-82
2021/11/03 03:56:49;;;;;;;51.53;32.00;;;;;;;8.34;94.13;99453.45;1615737;85;26051;-82
2021/11/03 03:59:17;;;;;;;49.05;30.40;;;;;;;8.35;94.08;99453.77;1629903;85;25369;-82
2021/11/03 04:01:44;;;;;;;46.92;28.60;;;;;;;8.37;94.06;99450.39;1634763;85;28205;-82
2021/11/03 04:04:13;;;;;;;43.75;27.93;;;;;;;8.39;93.98;99460.35;1658324;85;25354;-82
2021/11/03 04:06:41;;;;;;;43.98;28.42;;;;;;;8.40;93.94;99453.97;1626851;85;25853;-83
2021/11/03 04:09:09;;;;;;;45.23;27.62;;;;;;;8.41;93.82;99452.13;1628436;85;26328;-82
2021/11/03 04:11:38;;;;;;;45.05;28.83;;;;;;;8.39;93.66;99456.34;1631773;85;26028;-82
2021/11/03 04:14:06;;;;;;;49.53;28.70;;;;;;;8.38;93.67;99453.89;1607902;85;28343;-81
2021/11/03 04:16:34;;;;;;;50.58;30.88;;;;;;;8.35;93.59;99452.94;1660119;85;26714;-81
2021/11/03 04:19:01;;;;;;;49.73;30.68;;;;;;;8.33;93.64;99451.81;1631495;85;25802;-82
2021/11/03 04:21:30;;;;;;;48.95;30.65;;;;;;;8.35;93.57;99452.94;1619471;85;25929;-82
2021/11/03 04:23:57;;;;;;;50.65;30.70;;;;;;;8.36;93.57;99454.06;1610513;85;25993;-81
2021/11/03 04:26:29;;;;;;;51.33;31.25;;;;;;;8.36;93.41;99458.07;1658663;85;28163;-81
2021/11/03 04:28:58;;;;;;;47.65;31.48;;;;;;;8.36;93.30;99465.27;1659839;85;25818;-82
2021/11/03 04:31:25;;;;;;;47.05;30.00;;;;;;;8.34;93.20;99465.98;1611467;85;25894;-81
2021/11/03 04:33:53;;;;;;;51.68;31.60;;;;;;;8.32;93.16;99470.67;1623611;85;25872;-82
2021/11/03 04:36:23;;;;;;;55.78;33.75;;;;;;;8.27;93.13;99475.30;1627367;85;25942;-82
2021/11/03 04:38:54;;;;;;;50.40;31.07;;;;;;;8.26;93.12;99474.97;1629117;85;28303;-82
2021/11/03 04:41:21;;;;;;;;;;;;;;;8.25;93.26;99485.34;1660536;84;25928;-82
2021/11/03 04:43:49;;;;;;;51.08;32.03;;;;;;;8.22;93.17;99486.20;1660123;85;25957;-82
2021/11/03 04:46:18;;;;;;;57.25;33.78;;;;;;;8.19;93.32;99486.08;1660487;85;25890;-82
2021/11/03 04:48:46;;;;;;;56.50;33.38;;;;;;;8.20;93.42;99492.25;1624151;85;25332;-82
2021/11/03 04:51:15;;;;;;;50.75;32.20;;;;;;;8.23;93.47;99491.86;1617666;85;27371;-82
2021/11/03 04:53:43;;;;;;;56.37;33.73;;;;;;;8.24;93.47;99490.83;1659450;85;25836;-81
2021/11/03 04:56:15;;;;;;;52.38;32.15;;;;;;;8.26;93.43;99493.64;1659109;85;26600;-82
2021/11/03 05:01:24;;;;;;;48.38;30.30;;;;;;;8.32;93.46;99505.36;1728154;80;25258;-81
2021/11/03 05:03:54;;;;;;;44.93;29.55;;;;;;;8.25;93.42;99502.69;1689297;82;25854;-82
2021/11/03 05:06:25;;;;;;;49.05;29.52;;;;;;;8.23;93.43;99510.54;1667998;82;27357;-82
2021/11/03 05:08:55;;;;;;;51.95;31.85;;;;;;;8.20;93.36;99508.25;1716387;82;25906;-81
2021/11/03 05:11:23;;;;;;;53.63;31.95;;;;;;;8.17;93.15;99511.33;1717125;82;26169;-81
2021/11/03 05:13:50;;;;;;;54.38;32.25;;;;;;;8.15;93.16;99518.68;1696081;82;25779;-81
2021/11/03 05:16:21;;;;;;;56.63;32.30;;;;;;;8.16;93.19;99519.01;1692879;82;25929;-83
2021/11/03 05:18:52;;;;;;;48.78;30.10;;;;;;;8.15;93.24;99521.34;1721285;82;27463;-81
2021/11/03 05:21:19;;;;;;;51.25;31.30;;;;;;;8.14;93.27;99527.22;1717721;82;26975;-81
2021/11/03 05:23:47;;;;;;;47.40;30.30;;;;;;;8.12;93.23;99521.76;1659140;82;25850;-81
2021/11/03 05:26:22;;;;;;;42.50;26.75;;;;;;;8.10;93.16;99525.97;1637852;84;25884;-81
2021/11/03 05:28:54;;;;;;;47.73;29.07;;;;;;;8.08;93.09;99532.52;1656917;85;26067;-82
2021/11/03 05:31:22;;;;;;;51.65;28.62;;;;;;;8.05;93.04;99534.23;1670295;84;27592;-82
2021/11/03 05:33:49;;;;;;;47.43;30.00;;;;;;;8.03;93.10;99541.09;1593023;85;26011;-82
2021/11/03 05:36:20;;;;;;;45.50;27.40;;;;;;;8.05;93.15;99544.89;1658090;84;26652;-81
2021/11/03 05:38:47;;;;;;;50.05;30.50;;;;;;;8.03;93.14;99542.43;1660146;84;26060;-81
2021/11/03 05:41:14;;;;;;;43.80;27.10;;;;;;;8.04;93.17;99549.39;1680911;84;25889;-81
2021/11/03 05:43:42;;;;;;;44.98;27.85;;;;;;;8.03;93.07;99556.27;1613336;85;27639;-81
2021/11/03 05:46:14;;;;;;;44.93;26.37;;;;;;;8.04;93.07;99559.27;1614908;85;26005;-81
2021/11/03 05:48:45;;;;;;;43.23;28.32;;;;;;;8.05;93.08;99559.56;1663772;85;26770;-81
2021/11/03 05:51:13;;;;;;;43.30;28.20;;;;;;;8.04;93.12;99565.40;1664193;84;25976;-81
2021/11/03 05:53:40;;;;;;;46.63;29.15;;;;;;;8.07;93.20;99573.02;1610973;85;25880;-82
2021/11/03 05:56:09;;;;;;;53.63;31.52;;;;;;;8.11;93.29;99572.11;1613743;85;27367;-81
2021/11/03 05:58:36;;;;;;;45.50;29.00;;;;;;;8.11;93.33;99572.94;1663634;85;26456;-81
2021/11/03 06:01:05;;;;;;;47.20;29.40;;;;;;;8.13;93.39;99577.56;1625176;85;25812;-82
2021/11/03 06:03:32;;;;;;;47.43;29.77;;;;;;;8.15;93.35;99585.36;1616123;86;26040;-82
2021/11/03 06:06:00;;;;;;;42.05;27.50;;;;;;;8.15;93.27;99585.36;1598017;86;25917;-82
2021/11/03 06:08:27;;;;;;;46.25;28.12;;;;;;;8.17;93.15;99593.48;1645149;86;27447;-81
2021/11/03 06:10:56;;;;;;;42.25;27.00;;;;;;;8.16;92.98;99593.70;1643913;86;25881;-81
2021/11/03 06:13:24;;;;;;;39.37;26.97;;;;;;;8.15;93.01;99599.53;1617535;86;25430;-81
2021/11/03 06:15:51;;;;;;;40.33;26.15;;;;;;;8.17;93.12;99604.69;1597750;86;25962;-81
2021/11/03 06:18:18;;;;;;;40.15;27.05;;;;;;;8.15;93.02;99612.03;1644730;86;26563;-81
2021/11/03 06:20:45;;;;;;;43.68;27.05;;;;;;;8.14;93.09;99613.07;1642964;86;27517;-81
2021/11/03 06:23:12;;;;;;;46.28;28.57;;;;;;;8.16;93.21;99617.20;1573699;86;25897;-81
2021/11/03 06:25:39;;;;;;;39.42;26.25;;;;;;;8.19;93.20;99626.66;1597129;86;25994;-82
2021/11/03 06:28:06;;;;;;;43.15;26.85;;;;;;;8.20;93.12;99626.45;1645252;86;25875;-82
2021/11/03 06:30:37;;;;;;;44.95;27.48;;;;;;;8.20;93.01;99621.13;1635561;85;25905;-81
2021/11/03 06:33:05;;;;;;;40.48;26.55;;;;;;;8.20;93.07;99625.13;1590448;87;28226;-80
2021/11/03 06:35:35;;;;;;;43.45;26.20;;;;;;;8.22;93.13;99629.75;1633794;86;25860;-81
2021/11/03 06:38:05;;;;;;;42.15;26.02;;;;;;;8.23;93.08;99627.38;1645598;86;25843;-81
2021/11/03 06:40:33;;;;;;;44.83;25.90;;;;;;;8.25;92.91;99633.88;1639625;87;26170;-82
2021/11/03 06:43:00;;;;;;;40.43;25.75;;;;;;;8.24;92.82;99637.55;1574380;86;25809;-80
2021/11/03 06:45:28;;;;;;;45.35;25.32;;;;;;;8.24;92.83;99642.88;1592516;86;27591;-82
2021/11/03 06:47:56;;;;;;;47.67;27.45;;;;;;;8.24;92.88;99647.72;1633246;86;25437;-81
2021/11/03 06:50:28;;;;;;;39.88;24.87;;;;;;;8.25;92.85;99657.89;1645718;86;25882;-81
2021/11/03 06:52:57;;;;;;;44.38;25.70;;;;;;;8.26;92.98;99659.05;1648492;86;25861;-81
2021/11/03 06:55:25;;;;;;;47.23;26.23;;;;;;;8.31;93.10;99661.97;1590649;85;25334;-82
2021/11/03 06:57:52;;;;;;;41.28;25.50;;;;;;;8.35;93.16;99659.72;1656660;86;27546;-81
2021/11/03 07:00:25;;;;;;;44.65;27.52;;;;;;;8.40;93.19;99665.31;1648941;85;25822;-80
2021/11/03 07:02:54;;;;;;;42.93;26.02;;;;;;;8.42;93.02;99666.77;1611885;86;26024;-81
2021/11/03 07:05:21;;;;;;;45.52;26.57;;;;;;;8.47;93.15;99667.49;1610560;86;26070;-80
2021/11/03 07:07:48;;;;;;;42.80;26.33;;;;;;;8.50;92.97;99675.13;1666750;84;25747;-80
2021/11/03 07:10:26;;;;;;;42.60;26.30;;;;;;;8.51;92.94;99677.58;1661188;86;27658;-81
2021/11/03 07:12:53;;;;;;;43.02;26.90;;;;;;;8.52;92.82;99677.91;1604354;86;26156;-82
2021/11/03 07:15:21;;;;;;;38.85;24.37;;;;;;;8.53;92.87;99678.75;1584098;86;25812;-81
2021/11/03 07:17:49;;;;;;;43.92;26.23;;;;;;;8.52;92.78;99683.25;1657286;85;25886;-81
2021/11/03 07:20:16;;;;;;;45.88;26.82;;;;;;;8.50;92.85;99681.29;1661267;85;26221;-81
2021/11/03 07:22:44;;;;;;;43.80;26.42;;;;;;;8.53;93.05;99682.75;1612296;85;27062;-81
2021/11/03 07:25:17;;;;;;;48.15;28.25;;;;;;;8.56;93.10;99681.00;1609788;85;25898;-81
2021/11/03 07:27:46;;;;;;;45.48;28.98;;;;;;;8.55;92.97;99686.84;1662972;85;25887;-81
2021/11/03 07:30:15;;;;;;;46.28;27.58;;;;;;;8.55;93.12;99685.51;1656339;85;25866;-81
2021/11/03 07:32:43;;;;;;;46.28;27.67;;;;;;;8.59;93.24;99689.13;1605140;86;25943;-81
2021/11/03 07:35:11;;;;;;;48.85;29.10;;;;;;;8.57;93.18;99689.34;1626252;85;27563;-82
2021/11/03 07:37:38;;;;;;;52.50;30.68;;;;;;;8.59;93.34;99697.14;1642639;85;25895;-81
2021/11/03 07:40:10;;;;;;;52.88;29.50;;;;;;;8.60;93.40;99702.28;1634098;87;25876;-81
2021/11/03 07:42:39;;;;;;;56.58;29.80;;;;;;;8.64;93.73;99702.20;1626700;85;25882;-81
2021/11/03 07:45:08;;;;;;;51.20;29.82;;;;;;;8.67;93.48;99710.33;1646457;85;26070;-80
2021/11/03 07:47:36;;;;;;;53.25;30.35;;;;;;;8.67;93.61;99707.66;1632254;86;27478;-82
2021/11/03 07:50:06;;;;;;;52.00;30.75;;;;;;;8.68;93.71;99707.48;1640761;86;26605;-81
2021/11/03 07:52:33;;;;;;;55.95;31.33;;;;;;;8.71;93.79;99707.08;1600847;86;25940;-81
2021/11/03 07:55:00;;;;;;;57.45;31.62;;;;;;;8.74;93.82;99709.87;1580550;85;25900;-80
2021/11/03 07:57:27;;;;;;;58.68;32.10;;;;;;;8.75;93.86;99714.17;1647898;85;25973;-82
2021/11/03 07:59:55;;;;;;;54.48;30.10;;;;;;;8.77;93.92;99714.83;1659109;85;27527;-82
2021/11/03 08:02:22;;;;;;;50.98;28.42;;;;;;;8.76;93.89;99714.50;1607473;84;25923;-82
2021/11/03 08:04:49;;;;;;;50.43;27.82;;;;;;;8.75;93.69;99718.17;1615242;85;25936;-81
2021/11/03 08:07:16;;;;;;;55.08;30.60;;;;;;;8.72;93.78;99725.27;1669148;85;25900;-82
2021/11/03 08:09:46;;;;;;;56.33;30.23;;;;;;;8.69;93.79;99729.14;1668553;85;25868;-81
2021/11/03 08:12:14;;;;;;;54.03;31.10;;;;;;;8.72;94.09;99723.92;1618629;85;27606;-80
2021/11/03 08:14:41;;;;;;;53.02;29.48;;;;;;;8.73;94.03;99725.05;1612680;87;25894;-81
2021/11/03 08:17:18;;;;;;;57.15;31.87;;;;;;;8.76;94.13;99731.86;1648717;85;25936;-81
2021/11/03 08:19:54;;;;;;;65.32;34.83;;;;;;;8.78;94.09;99731.15;1640695;85;25338;-81
2021/11/03 08:22:24;;;;;;;64.40;34.75;;;;;;;8.79;94.04;99737.62;1637775;86;25795;-83
2021/11/03 08:24:53;;;;;;;62.85;33.95;;;;;;;8.82;94.06;99733.73;1644988;84;27457;-82
2021/11/03 08:27:22;;;;;;;60.20;33.35;;;;;;;8.86;94.18;99735.82;1659637;85;25807;-82
2021/11/03 08:29:51;;;;;;;60.78;33.70;;;;;;;8.89;94.09;99742.12;1670395;85;25846;-82
2021/11/03 08:32:24;;;;;;;60.75;34.13;;;;;;;8.92;94.04;99740.88;1619967;84;26372;-82
2021/11/03 08:34:53;;;;;;;64.27;34.58;;;;;;;8.94;93.87;99746.34;1679360;84;25601;-81
2021/11/03 08:37:28;;;;;;;55.00;32.35;;;;;;;8.98;94.06;99752.93;1651812;85;27652;-81
2021/11/03 08:39:58;;;;;;;54.38;33.23;;;;;;;9.00;93.66;99755.43;1684137;83;25849;-83
2021/11/03 08:42:25;;;;;;;53.08;33.38;;;;;;;8.99;93.66;99758.60;1659106;85;25878;-81
2021/11/03 08:44:53;;;;;;;56.75;34.92;;;;;;;9.01;93.76;99760.56;1654696;84;26006;-81
2021/11/03 08:47:20;;;;;;;60.30;34.48;;;;;;;9.04;93.88;99760.19;1659492;84;25851;-81
2021/11/03 08:49:48;;;;;;;60.58;36.48;;;;;;;9.09;94.04;99768.41;1687160;84;27556;-81
2021/11/03 08:52:15;;;;;;;59.18;34.38;;;;;;;9.16;94.28;99767.11;1644914;85;25854;-82
2021/11/03 08:54:47;;;;;;;63.33;34.63;;;;;;;9.20;93.97;99767.03;1623903;85;25786;-83
2021/11/03 08:57:14;;;;;;;54.70;33.20;;;;;;;9.24;93.83;99768.27;1624987;85;25999;-81
2021/11/03 08:59:42;;;;;;;55.43;34.50;;;;;;;9.30;93.96;99764.30;1674172;85;26005;-82
2021/11/03 09:02:10;;;;;;;57.53;35.50;;;;;;;9.37;93.77;99764.33;1638575;86;28381;-82
2021/11/03 09:04:38;;;;;;;54.60;32.67;;;;;;;9.42;93.65;99757.05;1615769;86;25849;-82
2021/11/03 09:07:14;;;;;;;54.63;34.50;;;;;;;9.46;93.49;99762.31;1626118;86;25893;-81
2021/11/03 09:09:47;;;;;;;66.22;35.75;;;;;;;9.48;93.43;99758.92;1660697;84;25830;-83
2021/11/03 09:12:15;;;;;;;50.98;33.83;;;;;;;9.53;93.55;99759.16;1635085;86;26601;-81
2021/11/03 09:14:43;;;;;;;51.90;33.78;;;;;;;9.57;93.26;99770.59;1627437;86;28209;-82
2021/11/03 09:17:12;;;;;;;50.85;34.50;;;;;;;9.59;93.27;99768.55;1609029;86;25921;-82
2021/11/03 09:19:39;;;;;;;51.37;33.33;;;;;;;9.65;93.37;99773.59;1665501;84;25353;-82
2021/11/03 09:22:06;;;;;;;47.90;32.60;;;;;;;9.68;92.98;99777.21;1643472;86;26049;-82
2021/11/03 09:24:35;;;;;;;54.73;31.87;;;;;;;9.69;92.79;99775.66;1598218;86;25789;-81
2021/11/03 09:27:12;;;;;;;41.53;30.05;;;;;;;9.73;92.66;99774.77;1645892;85;27545;-82
2021/11/03 09:29:35;;;;;;;45.00;28.62;;;;;;;9.72;92.02;99778.45;1664857;84;25848;-82
2021/11/03 09:32:02;;;;;;;42.23;29.15;;;;;;;9.71;91.79;99785.64;1644315;86;25857;-81
2021/11/03 09:34:31;;;;;;;44.70;28.25;;;;;;;9.72;91.92;99786.48;1618786;86;25946;-82
2021/11/03 09:37:01;;;;;;;43.25;30.35;;;;;;;9.70;91.73;99781.34;1643875;86;25349;-81
2021/11/03 09:39:29;;;;;;;45.30;28.95;;;;;;;9.74;92.16;99787.09;1636682;86;27699;-81
2021/11/03 09:41:56;;;;;;;41.63;28.80;;;;;;;9.77;91.85;99788.05;1638061;85;25756;-81
2021/11/03 09:44:33;;;;;;;39.35;27.45;;;;;;;9.82;91.74;99789.59;1620674;85;26416;-85
2021/11/03 09:47:32;;;;;;;43.58;30.75;;;;;;;9.85;91.56;99793.20;1644131;85;25814;-85
2021/11/03 09:50:14;;;;;;;39.40;29.18;;;;;;;9.88;91.58;99796.30;1660470;85;25818;-83
2021/11/03 09:52:45;;;;;;;39.35;26.97;;;;;;;9.91;90.95;99803.93;1635849;86;28241;-83
2021/11/03 09:55:27;;;;;;;40.20;27.10;;;;;;;9.91;90.50;99805.27;1637765;86;25430;-84
2021/11/03 09:58:19;;;;;;;38.65;28.42;;;;;;;9.90;89.88;99802.80;1635856;84;25892;-84
2021/11/03 10:01:18;;;;;;;39.27;28.32;;;;;;;9.89;90.13;99799.80;1654126;85;26353;-84
2021/11/03 10:04:02;;;;;;;41.25;29.42;;;;;;;9.93;90.60;99811.23;1607457;87;26166;-84
2021/11/03 10:06:47;;;;;;;40.95;28.85;;;;;;;9.99;90.42;99807.75;1611194;86;27486;-83
2021/11/03 10:09:14;;;;;;;43.10;30.15;;;;;;;10.05;90.62;99810.95;1628972;86;26168;-83
2021/11/03 10:11:46;;;;;;;42.08;30.55;;;;;;;10.14;90.75;99808.94;1658722;86;26447;-84
2021/11/03 10:14:13;;;;;;;46.33;32.38;;;;;;;10.19;90.54;99801.14;1632116;86;26310;-84
2021/11/03 10:16:47;;;;;;;83.95;51.42;;;;;;;10.25;90.53;99802.99;1596493;86;25819;-84
2021/11/03 10:19:20;;;;;;;55.75;37.63;;;;;;;10.33;90.19;99800.11;1642190;86;27430;-84
2021/11/03 10:21:58;;;;;;;47.27;33.02;;;;;;;10.41;90.19;99802.62;1666593;85;25782;-82
2021/11/03 10:24:30;;;;;;;42.50;31.02;;;;;;;10.48;90.15;99806.61;1639856;86;25781;-84
2021/11/03 10:27:19;;;;;;;39.35;28.25;;;;;;;10.49;89.57;99802.41;1638132;86;25965;-85
2021/11/03 10:29:53;;;;;;;38.10;27.65;;;;;;;10.52;89.47;99808.67;1637497;84;26083;-83
2021/11/03 10:32:42;;;;;;;43.35;29.98;;;;;;;10.54;89.25;99804.47;1673554;84;27624;-85
2021/11/03 10:35:32;;;;;;;41.45;28.38;;;;;;;10.58;89.41;99812.41;1616039;87;26090;-84
2021/11/03 10:38:13;;;;;;;39.78;28.07;;;;;;;10.66;89.88;99810.85;1639264;84;26604;-84
2021/11/03 10:41:03;;;;;;;35.83;26.12;;;;;;;10.75;90.21;99818.48;1619528;86;25807;-85
2021/11/03 10:43:42;;;;;;;37.90;27.00;;;;;;;10.82;89.62;99812.59;1618754;86;25366;-83
2021/11/03 10:46:30;;;;;;;44.67;31.75;;;;;;;10.86;89.35;99812.48;1632076;86;27531;-84
2021/11/03 10:49:22;;;;;;;38.55;28.67;;;;;;;10.90;89.42;99819.60;1639797;85;26039;-83
2021/11/03 10:52:20;;;;;;;39.33;28.50;;;;;;;10.95;89.15;99816.30;1650845;86;25856;-84
2021/11/03 10:54:58;;;;;;;33.73;23.77;;;;;;;11.04;88.99;99823.07;1647696;86;26163;-84
2021/11/03 10:57:42;;;;;;;33.20;22.22;;;;;;;11.10;88.40;99816.36;1641039;85;26354;-85
2021/11/03 11:00:29;;;;;;;31.75;21.75;;;;;;;11.15;88.52;99821.94;1628648;86;28751;-85
2021/11/03 11:03:15;;;;;;;31.52;21.60;;;;;;;11.19;88.47;99819.65;1606028;87;25869;-84
2021/11/03 11:05:48;;;;;;;31.35;21.10;;;;;;;11.18;87.86;99819.36;1655316;86;25813;-86
2021/11/03 11:08:23;;;;;;;32.38;22.37;;;;;;;11.21;87.88;99820.26;1633177;86;25916;-85
2021/11/03 11:11:08;;;;;;;32.63;21.80;;;;;;;11.23;87.85;99819.53;1623496;87;26428;-84
2021/11/03 11:13:41;;;;;;;30.25;20.48;;;;;;;11.27;87.84;99816.77;1614856;87;28248;-85
2021/11/03 11:16:13;;;;;;;25.23;19.02;;;;;;;11.30;87.52;99813.64;1612115;88;25755;-84
2021/11/03 11:18:50;;;;;;;24.92;18.48;;;;;;;11.34;87.26;99810.84;1584597;89;25909;-85
2021/11/03 11:21:43;;;;;;;26.68;18.65;;;;;;;11.34;86.77;99816.20;1632172;86;25947;-83
2021/11/03 11:24:15;;;;;;;29.30;19.52;;;;;;;11.36;86.95;99823.02;1608880;86;25360;-83
2021/11/03 11:27:21;;;;;;;27.37;19.23;;;;;;;11.40;86.93;99816.19;1648499;86;27363;-85
2021/11/03 11:30:03;;;;;;;25.72;17.30;;;;;;;11.46;86.88;99823.93;1643572;86;25943;-85
2021/11/03 11:33:07;;;;;;;24.77;17.15;;;;;;;11.47;86.38;99819.69;1621881;86;25841;-82
2021/11/03 11:36:13;;;;;;;25.90;17.30;;;;;;;11.48;86.02;99814.61;1644539;85;25909;-84
2021/11/03 11:38:58;;;;;;;24.87;17.82;;;;;;;11.50;85.52;99821.92;1683975;83;25873;-83
2021/11/03 11:41:33;;;;;;;26.00;17.10;;;;;;;11.55;85.72;99826.66;1657535;84;26903;-84
2021/11/03 11:44:16;;;;;;;26.62;17.27;;;;;;;11.51;85.28;99822.25;1646900;85;25949;-83
2021/11/03 11:46:45;;;;;;;27.22;19.45;;;;;;;11.49;84.95;99812.25;1633379;84;25848;-84